sensor_id;sensor_type;location;lat;lon;timestamp;pressure;altitude;pressure_sealevel;temperature;humidity
33191;BME280;19554;42.652;23.364;2023-02-08T00:01:16;96175.81;;;-3.58;59.76
33191;BME280;19554;42.652;23.364;2023-02-08T00:03:42;96169.16;;;-3.52;59.54
33191;BME280;19554;42.652;23.364;2023-02-08T00:06:08;96168.00;;;-3.58;59.37
33191;BME280;19554;42.652;23.364;2023-02-08T00:08:34;96106.44;;;-4.09;59.40
33191;BME280;19554;42.652;23.364;2023-02-08T00:11:00;96167.97;;;-3.74;59.66
33191;BME280;19554;42.652;23.364;2023-02-08T00:13:25;96186.56;;;-3.69;59.78
33191;BME280;19554;42.652;23.364;2023-02-08T00:15:52;96093.16;;;-4.32;60.11
33191;BME280;19554;42.652;23.364;2023-02-08T00:18:17;96179.56;;;-3.68;59.90
33191;BME280;19554;42.652;23.364;2023-02-08T00:20:43;96186.75;;;-3.62;59.71
33191;BME280;19554;42.652;23.364;2023-02-08T00:23:09;96184.41;;;-3.82;59.81
33191;BME280;19554;42.652;23.364;2023-02-08T00:25:35;96194.19;;;-3.84;60.33
33191;BME280;19554;42.652;23.364;2023-02-08T00:28:01;96182.44;;;-3.88;60.21
33191;BME280;19554;42.652;23.364;2023-02-08T00:30:26;96178.03;;;-3.87;59.99
33191;BME280;19554;42.652;23.364;2023-02-08T00:32:52;96198.63;;;-3.68;60.48
33191;BME280;19554;42.652;23.364;2023-02-08T00:35:18;96201.25;;;-3.60;59.60
33191;BME280;19554;42.652;23.364;2023-02-08T00:37:43;96205.84;;;-3.53;59.33
33191;BME280;19554;42.652;23.364;2023-02-08T00:40:09;96183.28;;;-3.71;59.24
33191;BME280;19554;42.652;23.364;2023-02-08T00:42:35;96210.28;;;-3.38;58.98
33191;BME280;19554;42.652;23.364;2023-02-08T00:45:00;96109.88;;;-4.00;58.81
33191;BME280;19554;42.652;23.364;2023-02-08T00:47:25;96206.81;;;-3.46;58.20
33191;BME280;19554;42.652;23.364;2023-02-08T00:49:51;96184.41;;;-3.73;58.60
33191;BME280;19554;42.652;23.364;2023-02-08T00:52:17;96218.25;;;-3.55;58.85
33191;BME280;19554;42.652;23.364;2023-02-08T00:54:43;96224.47;;;-3.48;59.10
33191;BME280;19554;42.652;23.364;2023-02-08T00:57:08;96208.78;;;-3.48;59.34
33191;BME280;19554;42.652;23.364;2023-02-08T00:59:34;96221.50;;;-3.53;59.14
33191;BME280;19554;42.652;23.364;2023-02-08T01:01:59;96220.50;;;-3.61;59.89
33191;BME280;19554;42.652;23.364;2023-02-08T01:04:24;96212.34;;;-3.66;59.98
33191;BME280;19554;42.652;23.364;2023-02-08T01:06:50;96217.56;;;-3.66;60.27
33191;BME280;19554;42.652;23.364;2023-02-08T01:09:15;96226.72;;;-3.53;59.93
33191;BME280;19554;42.652;23.364;2023-02-08T01:11:41;96210.31;;;-3.80;60.54
33191;BME280;19554;42.652;23.364;2023-02-08T01:14:06;96221.19;;;-3.50;60.02
33191;BME280;19554;42.652;23.364;2023-02-08T01:16:33;96231.34;;;-3.31;59.27
33191;BME280;19554;42.652;23.364;2023-02-08T01:19:00;96219.88;;;-3.46;59.68
33191;BME280;19554;42.652;23.364;2023-02-08T01:21:31;96229.22;;;-3.19;59.18
33191;BME280;19554;42.652;23.364;2023-02-08T01:23:57;96215.34;;;-2.95;59.18
33191;BME280;19554;42.652;23.364;2023-02-08T01:26:23;96216.34;;;-2.96;58.06
33191;BME280;19554;42.652;23.364;2023-02-08T01:28:51;96210.78;;;-3.10;58.50
33191;BME280;19554;42.652;23.364;2023-02-08T01:31:19;96208.50;;;-3.13;59.20
33191;BME280;19554;42.652;23.364;2023-02-08T01:33:45;96206.53;;;-2.94;58.81
33191;BME280;19554;42.652;23.364;2023-02-08T01:36:11;96203.59;;;-2.83;58.55
33191;BME280;19554;42.652;23.364;2023-02-08T01:38:37;96199.69;;;-2.95;58.07
33191;BME280;19554;42.652;23.364;2023-02-08T01:41:04;96150.06;;;-3.36;58.20
33191;BME280;19554;42.652;23.364;2023-02-08T01:43:32;96195.78;;;-3.07;58.30
33191;BME280;19554;42.652;23.364;2023-02-08T01:45:58;96213.41;;;-3.18;58.80
33191;BME280;19554;42.652;23.364;2023-02-08T01:48:36;96223.16;;;-3.36;59.68
33191;BME280;19554;42.652;23.364;2023-02-08T01:51:14;96214.66;;;-3.54;60.69
33191;BME280;19554;42.652;23.364;2023-02-08T01:53:41;96216.22;;;-3.70;61.19
33191;BME280;19554;42.652;23.364;2023-02-08T01:56:11;96222.44;;;-3.71;61.16
33191;BME280;19554;42.652;23.364;2023-02-08T01:58:44;96228.00;;;-3.66;61.55
33191;BME280;19554;42.652;23.364;2023-02-08T02:01:11;96216.91;;;-3.60;61.60
33191;BME280;19554;42.652;23.364;2023-02-08T02:03:37;96228.69;;;-3.55;61.30
33191;BME280;19554;42.652;23.364;2023-02-08T02:06:16;96211.31;;;-3.73;60.81
33191;BME280;19554;42.652;23.364;2023-02-08T02:08:49;96229.00;;;-3.59;61.01
33191;BME280;19554;42.652;23.364;2023-02-08T02:11:18;96177.09;;;-3.78;60.79
33191;BME280;19554;42.652;23.364;2023-02-08T02:13:44;96233.91;;;-3.55;60.98
33191;BME280;19554;42.652;23.364;2023-02-08T02:16:11;96245.00;;;-3.45;61.28
33191;BME280;19554;42.652;23.364;2023-02-08T02:18:36;96221.75;;;-3.73;60.86
33191;BME280;19554;42.652;23.364;2023-02-08T02:39:40;96239.56;;;-3.68;61.79
33191;BME280;19554;42.652;23.364;2023-02-08T02:42:18;96266.53;;;-3.51;61.92
33191;BME280;19554;42.652;23.364;2023-02-08T02:45:11;96264.25;;;-3.46;61.53
33191;BME280;19554;42.652;23.364;2023-02-08T02:50:40;96267.53;;;-3.44;61.79
33191;BME280;19554;42.652;23.364;2023-02-08T02:54:15;96270.31;;;-3.29;62.06
33191;BME280;19554;42.652;23.364;2023-02-08T02:56:16;96267.22;;;-3.25;62.08
33191;BME280;19554;42.652;23.364;2023-02-08T02:58:43;96263.34;;;-3.21;61.93
33191;BME280;19554;42.652;23.364;2023-02-08T03:01:09;96262.66;;;-3.31;62.64
33191;BME280;19554;42.652;23.364;2023-02-08T03:03:34;96169.88;;;-3.92;62.97
33191;BME280;19554;42.652;23.364;2023-02-08T03:06:05;96184.06;;;-3.87;63.07
33191;BME280;19554;42.652;23.364;2023-02-08T03:11:51;96255.22;;;-3.60;64.23
33191;BME280;19554;42.652;23.364;2023-02-08T03:17:15;96265.84;;;-3.62;64.58
33191;BME280;19554;42.652;23.364;2023-02-08T03:22:38;96260.94;;;-3.65;64.33
33191;BME280;19554;42.652;23.364;2023-02-08T03:25:13;96261.56;;;-3.71;64.40
33191;BME280;19554;42.652;23.364;2023-02-08T03:28:05;96267.41;;;-3.77;64.82
33191;BME280;19554;42.652;23.364;2023-02-08T03:30:46;96255.34;;;-3.78;65.23
33191;BME280;19554;42.652;23.364;2023-02-08T03:33:24;96253.41;;;-3.76;65.48
33191;BME280;19554;42.652;23.364;2023-02-08T03:36:12;96256.66;;;-3.74;65.70
33191;BME280;19554;42.652;23.364;2023-02-08T03:38:43;96261.63;;;-3.54;65.06
33191;BME280;19554;42.652;23.364;2023-02-08T03:41:14;96271.06;;;-3.53;64.90
33191;BME280;19554;42.652;23.364;2023-02-08T03:43:46;96275.22;;;-3.85;65.59
33191;BME280;19554;42.652;23.364;2023-02-08T03:46:24;96262.81;;;-3.83;65.58
33191;BME280;19554;42.652;23.364;2023-02-08T03:48:53;96150.44;;;-4.48;65.85
33191;BME280;19554;42.652;23.364;2023-02-08T03:51:22;96278.03;;;-3.70;65.89
33191;BME280;19554;42.652;23.364;2023-02-08T03:53:50;96157.94;;;-4.45;65.25
33191;BME280;19554;42.652;23.364;2023-02-08T03:56:23;96282.81;;;-3.66;65.20
33191;BME280;19554;42.652;23.364;2023-02-08T03:59:00;96278.81;;;-3.78;65.82
33191;BME280;19554;42.652;23.364;2023-02-08T04:01:47;96287.59;;;-3.87;66.13
33191;BME280;19554;42.652;23.364;2023-02-08T04:04:15;96261.69;;;-3.81;65.56
33191;BME280;19554;42.652;23.364;2023-02-08T04:06:43;96292.56;;;-3.68;65.23
33191;BME280;19554;42.652;23.364;2023-02-08T04:09:09;96157.25;;;-4.56;65.58
33191;BME280;19554;42.652;23.364;2023-02-08T04:11:35;96205.84;;;-4.38;65.92
33191;BME280;19554;42.652;23.364;2023-02-08T04:14:00;96299.97;;;-3.89;66.26
33191;BME280;19554;42.652;23.364;2023-02-08T04:16:25;96296.69;;;-3.91;66.07
33191;BME280;19554;42.652;23.364;2023-02-08T04:18:51;96225.59;;;-4.36;66.29
33191;BME280;19554;42.652;23.364;2023-02-08T04:21:16;96296.34;;;-3.96;66.25
33191;BME280;19554;42.652;23.364;2023-02-08T04:23:42;96302.19;;;-4.02;66.54
33191;BME280;19554;42.652;23.364;2023-02-08T04:26:07;96309.31;;;-4.13;66.73
33191;BME280;19554;42.652;23.364;2023-02-08T04:28:33;96291.34;;;-4.16;66.88
33191;BME280;19554;42.652;23.364;2023-02-08T04:30:59;96307.66;;;-4.14;66.59
33191;BME280;19554;42.652;23.364;2023-02-08T04:33:24;96305.59;;;-4.28;66.96
33191;BME280;19554;42.652;23.364;2023-02-08T04:35:50;96207.06;;;-5.03;66.69
33191;BME280;19554;42.652;23.364;2023-02-08T04:38:16;96312.56;;;-4.37;67.35
33191;BME280;19554;42.652;23.364;2023-02-08T04:40:41;96305.19;;;-4.41;67.23
33191;BME280;19554;42.652;23.364;2023-02-08T04:43:07;96266.97;;;-4.59;67.31
33191;BME280;19554;42.652;23.364;2023-02-08T04:45:32;96315.72;;;-4.25;67.06
33191;BME280;19554;42.652;23.364;2023-02-08T04:48:00;96304.13;;;-4.05;67.01
33191;BME280;19554;42.652;23.364;2023-02-08T04:50:25;96308.69;;;-3.72;66.08
33191;BME280;19554;42.652;23.364;2023-02-08T04:52:51;96309.91;;;-3.50;65.32
33191;BME280;19554;42.652;23.364;2023-02-08T04:55:16;96275.66;;;-3.55;64.39
33191;BME280;19554;42.652;23.364;2023-02-08T04:57:42;96314.88;;;-3.31;63.83
33191;BME280;19554;42.652;23.364;2023-02-08T05:00:08;96337.69;;;-3.33;63.89
33191;BME280;19554;42.652;23.364;2023-02-08T05:02:33;96345.22;;;-3.30;63.70
33191;BME280;19554;42.652;23.364;2023-02-08T05:04:58;96347.53;;;-3.27;63.59
33191;BME280;19554;42.652;23.364;2023-02-08T05:07:24;96347.53;;;-3.27;63.19
33191;BME280;19554;42.652;23.364;2023-02-08T05:09:49;96364.13;;;-3.36;63.53
33191;BME280;19554;42.652;23.364;2023-02-08T05:12:15;96349.66;;;-3.65;63.96
33191;BME280;19554;42.652;23.364;2023-02-08T05:14:40;96349.56;;;-3.81;63.97
33191;BME280;19554;42.652;23.364;2023-02-08T05:17:05;96362.88;;;-3.92;64.81
33191;BME280;19554;42.652;23.364;2023-02-08T05:19:31;96370.53;;;-3.91;65.35
33191;BME280;19554;42.652;23.364;2023-02-08T05:21:56;96345.50;;;-4.10;65.68
33191;BME280;19554;42.652;23.364;2023-02-08T05:24:22;96370.63;;;-4.00;65.65
33191;BME280;19554;42.652;23.364;2023-02-08T05:26:47;96369.72;;;-3.91;65.72
33191;BME280;19554;42.652;23.364;2023-02-08T05:29:12;96364.91;;;-3.78;65.47
33191;BME280;19554;42.652;23.364;2023-02-08T05:31:39;96360.09;;;-3.65;65.01
33191;BME280;19554;42.652;23.364;2023-02-08T05:34:05;96367.44;;;-3.60;64.66
33191;BME280;19554;42.652;23.364;2023-02-08T05:36:30;96347.88;;;-3.56;64.24
33191;BME280;19554;42.652;23.364;2023-02-08T05:38:55;96375.25;;;-3.26;64.02
33191;BME280;19554;42.652;23.364;2023-02-08T05:41:21;96366.13;;;-3.22;63.42
33191;BME280;19554;42.652;23.364;2023-02-08T05:43:46;96365.66;;;-3.17;63.02
33191;BME280;19554;42.652;23.364;2023-02-08T05:46:12;96350.78;;;-3.25;62.55
33191;BME280;19554;42.652;23.364;2023-02-08T05:48:37;96356.38;;;-3.12;62.54
33191;BME280;19554;42.652;23.364;2023-02-08T05:51:03;96385.19;;;-2.87;62.02
33191;BME280;19554;42.652;23.364;2023-02-08T05:53:29;96386.50;;;-2.83;61.27
33191;BME280;19554;42.652;23.364;2023-02-08T05:55:58;96338.56;;;-3.16;61.35
33191;BME280;19554;42.652;23.364;2023-02-08T05:58:24;96387.13;;;-2.89;61.27
33191;BME280;19554;42.652;23.364;2023-02-08T06:00:50;96391.72;;;-2.83;61.29
33191;BME280;19554;42.652;23.364;2023-02-08T06:03:15;96391.41;;;-2.80;61.25
33191;BME280;19554;42.652;23.364;2023-02-08T06:05:41;96394.03;;;-2.72;61.65
33191;BME280;19554;42.652;23.364;2023-02-08T06:08:07;96371.16;;;-2.70;61.39
33191;BME280;19554;42.652;23.364;2023-02-08T06:10:33;96379.69;;;-2.51;61.02
33191;BME280;19554;42.652;23.364;2023-02-08T06:12:58;96380.66;;;-2.44;60.84
33191;BME280;19554;42.652;23.364;2023-02-08T06:15:24;96352.38;;;-2.57;60.85
33191;BME280;19554;42.652;23.364;2023-02-08T06:17:50;96380.00;;;-2.30;60.35
33191;BME280;19554;42.652;23.364;2023-02-08T06:20:15;96366.28;;;-2.24;60.39
33191;BME280;19554;42.652;23.364;2023-02-08T06:22:41;96378.53;;;-2.00;59.90
33191;BME280;19554;42.652;23.364;2023-02-08T06:25:06;96388.13;;;-1.76;58.79
33191;BME280;19554;42.652;23.364;2023-02-08T06:27:31;96384.81;;;-1.53;58.13
33191;BME280;19554;42.652;23.364;2023-02-08T06:29:57;96258.34;;;-2.09;58.22
33191;BME280;19554;42.652;23.364;2023-02-08T06:32:22;96392.41;;;-1.19;57.78
33191;BME280;19554;42.652;23.364;2023-02-08T06:34:48;96385.78;;;-1.46;56.56
33191;BME280;19554;42.652;23.364;2023-02-08T06:37:16;96370.38;;;-2.05;57.34
33191;BME280;19554;42.652;23.364;2023-02-08T06:39:41;96402.06;;;-1.83;58.51
33191;BME280;19554;42.652;23.364;2023-02-08T06:42:07;96394.41;;;-2.01;57.69
33191;BME280;19554;42.652;23.364;2023-02-08T06:44:33;96388.66;;;-1.80;57.69
33191;BME280;19554;42.652;23.364;2023-02-08T06:46:58;96340.09;;;-1.99;57.50
33191;BME280;19554;42.652;23.364;2023-02-08T06:49:23;96389.47;;;-1.80;57.92
33191;BME280;19554;42.652;23.364;2023-02-08T06:51:49;96304.19;;;-2.22;58.16
33191;BME280;19554;42.652;23.364;2023-02-08T06:54:14;96405.06;;;-1.47;57.98
33191;BME280;19554;42.652;23.364;2023-02-08T06:56:40;96345.03;;;-2.04;58.92
33191;BME280;19554;42.652;23.364;2023-02-08T06:59:05;96393.06;;;-1.81;59.64
33191;BME280;19554;42.652;23.364;2023-02-08T07:01:31;96415.63;;;-1.63;58.91
33191;BME280;19554;42.652;23.364;2023-02-08T07:03:56;96411.19;;;-1.63;58.56
33191;BME280;19554;42.652;23.364;2023-02-08T07:06:22;96355.47;;;-1.88;58.72
33191;BME280;19554;42.652;23.364;2023-02-08T07:08:47;96409.88;;;-1.59;58.82
33191;BME280;19554;42.652;23.364;2023-02-08T07:11:15;96413.94;;;-1.64;59.16
33191;BME280;19554;42.652;23.364;2023-02-08T07:13:41;96415.91;;;-1.50;59.20
33191;BME280;19554;42.652;23.364;2023-02-08T07:16:08;96410.72;;;-1.67;58.66
33191;BME280;19554;42.652;23.364;2023-02-08T07:18:35;96415.06;;;-1.51;58.57
33191;BME280;19554;42.652;23.364;2023-02-08T07:21:00;96420.09;;;-1.25;58.33
33191;BME280;19554;42.652;23.364;2023-02-08T07:23:26;96433.69;;;-1.37;57.46
33191;BME280;19554;42.652;23.364;2023-02-08T07:25:59;96437.53;;;-1.73;57.93
33191;BME280;19554;42.652;23.364;2023-02-08T07:28:25;96361.53;;;-2.45;58.32
33191;BME280;19554;42.652;23.364;2023-02-08T07:30:50;96447.69;;;-2.27;59.20
33191;BME280;19554;42.652;23.364;2023-02-08T07:33:16;96388.47;;;-2.69;59.27
33191;BME280;19554;42.652;23.364;2023-02-08T07:35:41;96440.16;;;-2.30;59.30
33191;BME280;19554;42.652;23.364;2023-02-08T07:38:07;96440.00;;;-2.20;59.01
33191;BME280;19554;42.652;23.364;2023-02-08T07:40:32;96455.53;;;-2.02;58.69
33191;BME280;19554;42.652;23.364;2023-02-08T07:42:57;96451.78;;;-1.83;57.92
33191;BME280;19554;42.652;23.364;2023-02-08T07:45:23;96449.47;;;-1.62;56.72
33191;BME280;19554;42.652;23.364;2023-02-08T07:47:48;96350.88;;;-1.94;56.29
33191;BME280;19554;42.652;23.364;2023-02-08T07:50:15;96447.22;;;-1.17;55.20
33191;BME280;19554;42.652;23.364;2023-02-08T07:52:41;96388.25;;;-1.53;54.98
33191;BME280;19554;42.652;23.364;2023-02-08T07:55:08;96441.38;;;-1.20;54.57
33191;BME280;19554;42.652;23.364;2023-02-08T07:57:36;96439.13;;;-1.39;54.54
33191;BME280;19554;42.652;23.364;2023-02-08T08:00:02;96332.19;;;-1.75;55.11
33191;BME280;19554;42.652;23.364;2023-02-08T08:02:27;96439.41;;;-0.47;54.36
33191;BME280;19554;42.652;23.364;2023-02-08T08:04:53;96436.94;;;-0.26;51.94
33191;BME280;19554;42.652;23.364;2023-02-08T08:07:18;96425.03;;;-0.59;52.67
33191;BME280;19554;42.652;23.364;2023-02-08T08:09:44;96440.09;;;-0.30;53.14
33191;BME280;19554;42.652;23.364;2023-02-08T08:12:09;96439.97;;;0.09;52.65
33191;BME280;19554;42.652;23.364;2023-02-08T08:14:34;96432.72;;;0.49;53.68
33191;BME280;19554;42.652;23.364;2023-02-08T08:17:00;96437.38;;;0.77;51.56
33191;BME280;19554;42.652;23.364;2023-02-08T08:19:25;96433.63;;;1.30;54.36
33191;BME280;19554;42.652;23.364;2023-02-08T08:21:50;96429.91;;;1.25;49.39
33191;BME280;19554;42.652;23.364;2023-02-08T08:24:16;96435.91;;;0.89;49.22
33191;BME280;19554;42.652;23.364;2023-02-08T08:26:41;96369.59;;;0.57;49.18
33191;BME280;19554;42.652;23.364;2023-02-08T08:29:07;96436.66;;;0.83;49.92
33191;BME280;19554;42.652;23.364;2023-02-08T08:31:32;96430.19;;;1.15;48.96
33191;BME280;19554;42.652;23.364;2023-02-08T08:33:57;96432.94;;;1.43;48.64
33191;BME280;19554;42.652;23.364;2023-02-08T08:36:23;96435.75;;;1.78;47.16
33191;BME280;19554;42.652;23.364;2023-02-08T08:38:48;96438.88;;;1.66;47.16
33191;BME280;19554;42.652;23.364;2023-02-08T08:41:15;96434.81;;;1.28;46.21
33191;BME280;19554;42.652;23.364;2023-02-08T08:43:46;96445.22;;;1.36;45.18
33191;BME280;19554;42.652;23.364;2023-02-08T08:46:11;96382.59;;;0.95;46.26
33191;BME280;19554;42.652;23.364;2023-02-08T08:48:37;96446.38;;;1.48;45.52
33191;BME280;19554;42.652;23.364;2023-02-08T08:51:03;96449.53;;;1.58;45.25
33191;BME280;19554;42.652;23.364;2023-02-08T08:53:29;96438.88;;;1.66;45.05
33191;BME280;19554;42.652;23.364;2023-02-08T08:55:54;96437.19;;;1.59;43.64
33191;BME280;19554;42.652;23.364;2023-02-08T08:58:20;96434.09;;;1.04;44.83
33191;BME280;19554;42.652;23.364;2023-02-08T09:00:45;96459.66;;;0.81;45.23
33191;BME280;19554;42.652;23.364;2023-02-08T09:03:10;96450.75;;;0.52;45.98
33191;BME280;19554;42.652;23.364;2023-02-08T09:05:36;96455.34;;;0.35;46.67
33191;BME280;19554;42.652;23.364;2023-02-08T09:08:01;96438.31;;;0.31;47.43
33191;BME280;19554;42.652;23.364;2023-02-08T09:10:28;96382.31;;;0.16;47.44
33191;BME280;19554;42.652;23.364;2023-02-08T09:12:53;96459.59;;;1.04;47.33
33191;BME280;19554;42.652;23.364;2023-02-08T09:15:19;96471.28;;;1.31;45.57
33191;BME280;19554;42.652;23.364;2023-02-08T09:17:44;96479.03;;;1.39;44.66
33191;BME280;19554;42.652;23.364;2023-02-08T09:20:10;96483.97;;;0.83;44.50
33191;BME280;19554;42.652;23.364;2023-02-08T09:22:35;96470.19;;;0.81;45.08
33191;BME280;19554;42.652;23.364;2023-02-08T09:25:00;96485.88;;;1.18;43.99
33191;BME280;19554;42.652;23.364;2023-02-08T09:27:27;96466.13;;;0.93;43.00
33191;BME280;19554;42.652;23.364;2023-02-08T09:29:53;96487.31;;;0.77;44.05
33191;BME280;19554;42.652;23.364;2023-02-08T09:32:18;96495.06;;;0.55;44.14
33191;BME280;19554;42.652;23.364;2023-02-08T09:34:45;96442.69;;;0.39;44.69
33191;BME280;19554;42.652;23.364;2023-02-08T09:37:10;96472.41;;;0.54;44.78
33191;BME280;19554;42.652;23.364;2023-02-08T09:39:36;96457.84;;;0.66;45.17
33191;BME280;19554;42.652;23.364;2023-02-08T09:42:43;96486.63;;;-0.01;46.10
33191;BME280;19554;42.652;23.364;2023-02-08T09:45:18;96476.97;;;0.37;46.30
33191;BME280;19554;42.652;23.364;2023-02-08T09:50:59;96477.03;;;0.52;45.43
33191;BME280;19554;42.652;23.364;2023-02-08T09:53:33;96472.81;;;0.05;45.57
33191;BME280;19554;42.652;23.364;2023-02-08T09:56:05;96474.41;;;-0.09;45.75
33191;BME280;19554;42.652;23.364;2023-02-08T09:58:45;96482.97;;;-0.46;46.69
33191;BME280;19554;42.652;23.364;2023-02-08T10:01:24;96477.94;;;-0.47;47.08
33191;BME280;19554;42.652;23.364;2023-02-08T10:03:55;96402.03;;;-1.11;47.17
33191;BME280;19554;42.652;23.364;2023-02-08T10:06:22;96465.88;;;-0.34;47.11
33191;BME280;19554;42.652;23.364;2023-02-08T10:08:50;96473.28;;;-0.14;47.27
33191;BME280;19554;42.652;23.364;2023-02-08T10:17:23;96461.31;;;0.06;46.48
33191;BME280;19554;42.652;23.364;2023-02-08T10:33:21;96464.16;;;-0.81;47.77
33191;BME280;19554;42.652;23.364;2023-02-08T10:35:49;96447.53;;;-0.42;47.06
33191;BME280;19554;42.652;23.364;2023-02-08T10:40:46;96458.03;;;-0.42;46.33
33191;BME280;19554;42.652;23.364;2023-02-08T10:50:58;96462.00;;;-0.46;45.89
33191;BME280;19554;42.652;23.364;2023-02-08T10:53:24;96461.41;;;-0.56;46.00
33191;BME280;19554;42.652;23.364;2023-02-08T10:55:49;96460.97;;;-0.37;47.01
33191;BME280;19554;42.652;23.364;2023-02-08T10:58:18;96378.84;;;-0.68;46.61
33191;BME280;19554;42.652;23.364;2023-02-08T11:00:45;96362.88;;;-0.51;46.06
33191;BME280;19554;42.652;23.364;2023-02-08T11:03:24;96434.47;;;0.19;45.81
33191;BME280;19554;42.652;23.364;2023-02-08T11:05:50;96466.44;;;0.60;45.06
33191;BME280;19554;42.652;23.364;2023-02-08T11:08:18;96461.03;;;0.77;44.77
33191;BME280;19554;42.652;23.364;2023-02-08T11:10:57;96437.44;;;0.54;44.24
33191;BME280;19554;42.652;23.364;2023-02-08T11:13:46;96461.38;;;0.59;43.79
33191;BME280;19554;42.652;23.364;2023-02-08T11:16:20;96461.28;;;0.52;43.37
33191;BME280;19554;42.652;23.364;2023-02-08T11:19:04;96464.41;;;0.33;44.68
33191;BME280;19554;42.652;23.364;2023-02-08T11:21:37;96364.94;;;-0.46;46.16
33191;BME280;19554;42.652;23.364;2023-02-08T11:27:47;96473.09;;;-1.14;50.94
33191;BME280;19554;42.652;23.364;2023-02-08T11:32:42;96475.81;;;-1.80;53.86
33191;BME280;19554;42.652;23.364;2023-02-08T11:37:47;96471.72;;;-2.23;53.99
33191;BME280;19554;42.652;23.364;2023-02-08T11:40:20;96461.66;;;-2.60;55.16
33191;BME280;19554;42.652;23.364;2023-02-08T11:42:47;96481.63;;;-2.43;55.24
33191;BME280;19554;42.652;23.364;2023-02-08T11:45:20;96458.72;;;-2.66;55.63
33191;BME280;19554;42.652;23.364;2023-02-08T11:47:46;96467.91;;;-2.45;55.44
33191;BME280;19554;42.652;23.364;2023-02-08T11:50:28;96471.56;;;-2.13;54.52
33191;BME280;19554;42.652;23.364;2023-02-08T11:52:58;96481.06;;;-2.04;53.41
33191;BME280;19554;42.652;23.364;2023-02-08T11:55:27;96471.88;;;-1.92;53.24
33191;BME280;19554;42.652;23.364;2023-02-08T11:57:59;96477.78;;;-2.06;53.27
33191;BME280;19554;42.652;23.364;2023-02-08T12:00:28;96480.06;;;-1.95;53.17
33191;BME280;19554;42.652;23.364;2023-02-08T12:03:03;96485.97;;;-2.01;52.40
33191;BME280;19554;42.652;23.364;2023-02-08T12:05:39;96487.91;;;-2.20;52.94
33191;BME280;19554;42.652;23.364;2023-02-08T12:08:30;96483.00;;;-2.15;53.60
33191;BME280;19554;42.652;23.364;2023-02-08T12:21:16;96385.75;;;-3.10;55.25
33191;BME280;19554;42.652;23.364;2023-02-08T12:23:49;96479.59;;;-2.74;55.12
33191;BME280;19554;42.652;23.364;2023-02-08T12:29:05;96481.25;;;-2.65;54.33
33191;BME280;19554;42.652;23.364;2023-02-08T12:34:32;96471.69;;;-2.40;53.95
33191;BME280;19554;42.652;23.364;2023-02-08T12:37:27;96475.13;;;-2.23;53.28
33191;BME280;19554;42.652;23.364;2023-02-08T12:43:39;96474.34;;;-2.15;51.87
33191;BME280;19554;42.652;23.364;2023-02-08T12:54:33;96451.94;;;-2.18;50.41
33191;BME280;19554;42.652;23.364;2023-02-08T12:57:02;96483.66;;;-1.96;49.42
33191;BME280;19554;42.652;23.364;2023-02-08T12:59:43;96478.78;;;-1.83;49.06
33191;BME280;19554;42.652;23.364;2023-02-08T13:02:57;96486.63;;;-1.83;47.90
33191;BME280;19554;42.652;23.364;2023-02-08T13:05:15;96477.63;;;-1.64;47.91
33191;BME280;19554;42.652;23.364;2023-02-08T13:07:45;96491.50;;;-1.72;48.29
33191;BME280;19554;42.652;23.364;2023-02-08T13:10:38;96495.59;;;-1.85;48.58
33191;BME280;19554;42.652;23.364;2023-02-08T13:13:17;96501.34;;;-1.82;48.09
33191;BME280;19554;42.652;23.364;2023-02-08T13:15:50;96464.38;;;-2.03;47.75
33191;BME280;19554;42.652;23.364;2023-02-08T13:18:26;96442.28;;;-2.09;47.77
33191;BME280;19554;42.652;23.364;2023-02-08T13:20:59;96414.50;;;-2.34;47.36
33191;BME280;19554;42.652;23.364;2023-02-08T13:23:29;96501.81;;;-1.78;47.85
33191;BME280;19554;42.652;23.364;2023-02-08T13:26:07;96506.56;;;-1.65;47.85
33191;BME280;19554;42.652;23.364;2023-02-08T13:28:33;96505.59;;;-1.73;47.56
33191;BME280;19554;42.652;23.364;2023-02-08T13:31:26;96505.28;;;-1.70;47.85
33191;BME280;19554;42.652;23.364;2023-02-08T13:34:01;96509.19;;;-1.57;47.93
33191;BME280;19554;42.652;23.364;2023-02-08T13:36:34;96508.19;;;-1.48;47.04
33191;BME280;19554;42.652;23.364;2023-02-08T13:39:05;96506.84;;;-1.28;46.20
33191;BME280;19554;42.652;23.364;2023-02-08T13:41:32;96501.94;;;-1.31;44.28
33191;BME280;19554;42.652;23.364;2023-02-08T13:44:04;96502.28;;;-1.26;43.35
33191;BME280;19554;42.652;23.364;2023-02-08T13:46:43;96509.13;;;-1.16;43.73
33191;BME280;19554;42.652;23.364;2023-02-08T13:56:19;96525.56;;;-1.63;47.98
33191;BME280;19554;42.652;23.364;2023-02-08T14:03:27;96527.38;;;-2.55;50.76
33191;BME280;19554;42.652;23.364;2023-02-08T14:05:55;96536.81;;;-2.63;50.17
33191;BME280;19554;42.652;23.364;2023-02-08T14:08:47;96531.53;;;-2.71;50.90
33191;BME280;19554;42.652;23.364;2023-02-08T14:11:40;96527.31;;;-2.64;51.08
33191;BME280;19554;42.652;23.364;2023-02-08T14:14:22;96535.16;;;-2.72;51.27
33191;BME280;19554;42.652;23.364;2023-02-08T14:19:35;96540.44;;;-2.55;51.87
33191;BME280;19554;42.652;23.364;2023-02-08T14:22:04;96533.81;;;-2.76;52.45
33191;BME280;19554;42.652;23.364;2023-02-08T14:24:33;96538.03;;;-2.83;53.21
33191;BME280;19554;42.652;23.364;2023-02-08T14:27:09;96456.63;;;-3.39;52.83
33191;BME280;19554;42.652;23.364;2023-02-08T14:29:35;96544.81;;;-2.98;53.65
33191;BME280;19554;42.652;23.364;2023-02-08T14:32:01;96549.22;;;-2.99;54.34
33191;BME280;19554;42.652;23.364;2023-02-08T14:34:32;96540.41;;;-2.98;54.52
33191;BME280;19554;42.652;23.364;2023-02-08T14:37:04;96540.09;;;-2.95;54.94
33191;BME280;19554;42.652;23.364;2023-02-08T14:39:33;96537.44;;;-3.03;54.72
33191;BME280;19554;42.652;23.364;2023-02-08T14:42:02;96547.13;;;-2.95;55.25
33191;BME280;19554;42.652;23.364;2023-02-08T14:49:48;96545.72;;;-2.81;55.27
33191;BME280;19554;42.652;23.364;2023-02-08T14:52:21;96547.88;;;-2.77;55.19
33191;BME280;19554;42.652;23.364;2023-02-08T14:55:00;96553.75;;;-2.75;55.19
33191;BME280;19554;42.652;23.364;2023-02-08T14:57:34;96559.34;;;-2.70;55.34
33191;BME280;19554;42.652;23.364;2023-02-08T15:00:03;96541.75;;;-2.59;54.83
33191;BME280;19554;42.652;23.364;2023-02-08T15:02:29;96505.69;;;-2.90;53.78